Terminal Aerodrome Forecast
Issued by NWS

Home | Current Version | Previous Version | Text Only | Print | Product List | Glossary On
Versions: 1 2 3 4 5 6 7 8 9 10 11 12 13 14 15 16 17 18 19 20 21
000
FTUS44 KHGX 290704 AAB
TAFCXO
TAF AMD
KCXO 290704Z 2907/3006 14013G23KT 6SM HZ BKN016 OVC025
      WS020/17040KT
     FM291600 16015G25KT 6SM BR BKN020
     FM292200 16016G26KT 6SM HZ VCSH BKN015
      TEMPO 3005/3006 33020KT TSRA OVC012CB=

USA.gov is the U.S. government's official web portal to all federal, state and local government web resources and services.